Time;durP1;ratioP1;P1;durP2;ratioP2;P2;SDS_P1;SDS_P2;PMS_P1;PMS_P2;Temp;Humidity;BMP_temperature;BMP_pressure;BME280_temperature;BME280_humidity;BME280_pressure;Samples;Min_cycle;Max_cycle;Signal;HPM_P1;HPM_P2
2023/05/08 00:00:17;;;;;;;2.30;0.73;;;;;;;;;;5092195;28;20043;-76
2023/05/08 00:02:42;;;;;;;1.10;1.00;;;;;;;;;;5082352;28;20032;-84
2023/05/08 00:05:08;;;;;;;0.22;0.22;;;;;;;;;;5054451;28;20119;-80
2023/05/08 00:07:34;;;;;;;0.40;0.40;;;;;;;;;;5083339;28;20120;-80
2023/05/08 00:10:00;;;;;;;0.20;0.20;;;;;;;;;;5061722;28;20484;-79
2023/05/08 00:12:25;;;;;;;0.20;0.20;;;;;;;;;;5072135;28;20039;-77
2023/05/08 00:14:51;;;;;;;0.20;0.20;;;;;;;;;;5072281;28;20377;-79
2023/05/08 00:17:16;;;;;;;1.13;1.02;;;;;;;;;;5054716;28;20029;-82
2023/05/08 00:19:42;;;;;;;6.50;1.42;;;;;;;;;;5075987;28;20024;-81
2023/05/08 00:22:07;;;;;;;1.10;1.02;;;;;;;;;;5088321;28;20064;-78
2023/05/08 00:24:32;;;;;;;0.20;0.20;;;;;;;;;;5083801;28;20044;-78
2023/05/08 00:26:58;;;;;;;0.20;0.20;;;;;;;;;;5081329;28;20036;-78
2023/05/08 00:29:23;;;;;;;0.20;0.20;;;;;;;;;;5082842;28;20503;-81
2023/05/08 00:31:48;;;;;;;0.30;0.30;;;;;;;;;;5080928;28;20060;-80
2023/05/08 00:34:14;;;;;;;0.20;0.20;;;;;;;;;;5072119;28;20028;-78
2023/05/08 00:36:39;;;;;;;0.10;0.10;;;;;;;;;;5060555;28;20418;-80
2023/05/08 00:39:05;;;;;;;0.20;0.20;;;;;;;;;;5079752;28;20123;-80
2023/05/08 00:41:31;;;;;;;0.20;0.20;;;;;;;;;;5054155;28;20040;-81
2023/05/08 00:43:56;;;;;;;0.20;0.20;;;;;;;;;;5072309;28;20373;-80
2023/05/08 00:46:22;;;;;;;0.20;0.20;;;;;;;;;;5072232;28;20029;-76
2023/05/08 00:48:47;;;;;;;0.20;0.20;;;;;;;;;;5094484;28;20444;-80
2023/05/08 00:51:13;;;;;;;0.20;0.20;;;;;;;;;;5095662;28;20032;-82
2023/05/08 00:53:41;;;;;;;1.00;1.00;;;;;;;;;;5077398;28;20384;-76
2023/05/08 00:56:09;;;;;;;0.20;0.20;;;;;;;;;;5095258;28;20088;-80
2023/05/08 00:58:35;;;;;;;0.20;0.20;;;;;;;;;;5095374;28;20028;-81
2023/05/08 01:01:00;;;;;;;0.13;0.13;;;;;;;;;;5095609;28;20491;-81
2023/05/08 01:03:26;;;;;;;0.20;0.20;;;;;;;;;;5077229;28;20024;-84
2023/05/08 01:05:53;;;;;;;0.10;0.10;;;;;;;;;;5077309;28;20036;-81
2023/05/08 01:08:18;;;;;;;0.20;0.20;;;;;;;;;;5077219;28;20380;-85
2023/05/08 01:10:52;;;;;;;0.10;0.10;;;;;;;;;;5092886;28;20085;-77
2023/05/08 01:13:23;;;;;;;0.20;0.20;;;;;;;;;;5076454;28;20476;-79
2023/05/08 01:16:00;;;;;;;0.30;0.30;;;;;;;;;;5095416;28;20032;-79
2023/05/08 01:18:34;;;;;;;0.20;0.20;;;;;;;;;;5077298;28;20379;-79
2023/05/08 01:21:19;;;;;;;0.20;0.20;;;;;;;;;;5095033;28;20559;-79
2023/05/08 01:23:50;;;;;;;0.22;0.22;;;;;;;;;;5093847;28;20030;-80
2023/05/08 01:26:25;;;;;;;0.20;0.20;;;;;;;;;;5077007;28;20039;-80
2023/05/08 01:28:57;;;;;;;0.65;0.65;;;;;;;;;;5076812;28;20062;-79
2023/05/08 01:31:25;;;;;;;2.83;1.33;;;;;;;;;;5094953;28;20065;-79
2023/05/08 01:34:29;;;;;;;1.00;1.00;;;;;;;;;;5093473;28;20060;-77
2023/05/08 01:36:58;;;;;;;0.20;0.20;;;;;;;;;;4993384;28;20057;-77
2023/05/08 01:39:23;;;;;;;0.10;0.10;;;;;;;;;;4993143;28;20549;-77
2023/05/08 01:42:01;;;;;;;0.20;0.20;;;;;;;;;;5040008;28;20044;-76
2023/05/08 01:44:35;;;;;;;0.52;0.52;;;;;;;;;;5076665;28;20041;-79
2023/05/08 01:47:05;;;;;;;0.20;0.20;;;;;;;;;;5076681;28;20032;-78
2023/05/08 01:49:37;;;;;;;0.20;0.20;;;;;;;;;;5076550;28;20119;-79
2023/05/08 01:52:04;;;;;;;0.20;0.20;;;;;;;;;;5075662;28;20039;-77
2023/05/08 01:54:35;;;;;;;0.20;0.20;;;;;;;;;;5076374;28;20383;-78
2023/05/08 01:57:01;;;;;;;0.13;0.13;;;;;;;;;;5094884;28;20028;-77
2023/05/08 01:59:27;;;;;;;0.20;0.20;;;;;;;;;;5075949;28;20063;-77
2023/05/08 02:01:55;;;;;;;0.10;0.10;;;;;;;;;;5076227;28;20039;-77
2023/05/08 02:04:21;;;;;;;0.20;0.20;;;;;;;;;;5093058;28;20032;-77
2023/05/08 02:06:47;;;;;;;0.20;0.20;;;;;;;;;;5093038;28;20426;-76
2023/05/08 02:09:12;;;;;;;0.20;0.20;;;;;;;;;;5092530;28;20028;-81
2023/05/08 02:11:40;;;;;;;0.20;0.20;;;;;;;;;;5092977;28;20118;-75
2023/05/08 02:14:07;;;;;;;0.50;0.50;;;;;;;;;;5076177;28;20035;-76
2023/05/08 02:16:33;;;;;;;0.47;0.47;;;;;;;;;;5094147;28;20467;-76
2023/05/08 02:18:59;;;;;;;0.30;0.30;;;;;;;;;;5094190;28;20040;-76
2023/05/08 02:21:25;;;;;;;0.17;0.17;;;;;;;;;;5075339;28;20032;-76
2023/05/08 02:23:51;;;;;;;0.20;0.20;;;;;;;;;;5093009;28;20036;-76
2023/05/08 02:26:17;;;;;;;0.20;0.20;;;;;;;;;;5097192;28;20069;-76
2023/05/08 02:28:43;;;;;;;0.20;0.20;;;;;;;;;;5062629;28;20036;-76
2023/05/08 02:31:09;;;;;;;0.30;0.30;;;;;;;;;;5095635;28;20059;-76
2023/05/08 02:33:36;;;;;;;0.20;0.20;;;;;;;;;;5094336;28;20028;-76
2023/05/08 02:36:02;;;;;;;0.20;0.20;;;;;;;;;;5075370;28;20048;-76
2023/05/08 02:38:29;;;;;;;0.63;0.63;;;;;;;;;;5093854;28;20032;-76
2023/05/08 02:40:59;;;;;;;0.20;0.20;;;;;;;;;;5075574;28;20024;-76
2023/05/08 02:43:25;;;;;;;0.20;0.20;;;;;;;;;;5075821;28;20028;-76
2023/05/08 02:46:06;;;;;;;0.22;0.22;;;;;;;;;;5093940;28;20035;-76
2023/05/08 02:48:36;;;;;;;0.10;0.10;;;;;;;;;;5074876;28;20040;-76
2023/05/08 02:51:07;;;;;;;0.38;0.38;;;;;;;;;;5073315;28;20051;-76
2023/05/08 02:53:39;;;;;;;0.20;0.20;;;;;;;;;;5093842;28;20119;-76
2023/05/08 02:56:10;;;;;;;0.20;0.20;;;;;;;;;;5092243;28;20024;-76
2023/05/08 02:58:40;;;;;;;0.10;0.10;;;;;;;;;;5093666;28;20116;-77
2023/05/08 03:01:10;;;;;;;0.40;0.40;;;;;;;;;;5075271;28;20028;-80
2023/05/08 03:03:47;;;;;;;1.85;1.75;;;;;;;;;;5069882;28;20081;-79
2023/05/08 03:06:14;;;;;;;0.10;0.10;;;;;;;;;;5086693;28;20365;-79
2023/05/08 03:08:40;;;;;;;1.10;1.00;;;;;;;;;;5071498;28;20080;-78
2023/05/08 03:11:15;;;;;;;1.08;1.08;;;;;;;;;;5070155;28;20556;-78
2023/05/08 03:13:41;;;;;;;0.10;0.10;;;;;;;;;;5071231;28;20024;-77
2023/05/08 03:16:10;;;;;;;0.10;0.10;;;;;;;;;;5070955;28;20288;-78
2023/05/08 03:18:51;;;;;;;1.52;1.50;;;;;;;;;;5071272;28;20081;-79
2023/05/08 03:21:18;;;;;;;0.20;0.20;;;;;;;;;;5089311;28;20472;-79
2023/05/08 03:23:45;;;;;;;0.20;0.20;;;;;;;;;;5054242;28;20039;-80
2023/05/08 03:26:12;;;;;;;0.10;0.10;;;;;;;;;;5088156;28;20060;-76
2023/05/08 03:28:38;;;;;;;3.75;3.50;;;;;;;;;;5089287;28;20058;-77
2023/05/08 03:31:04;;;;;;;0.10;0.10;;;;;;;;;;5089332;28;20105;-78
2023/05/08 03:33:31;;;;;;;0.20;0.20;;;;;;;;;;5071236;28;20039;-78
2023/05/08 03:35:58;;;;;;;0.68;0.68;;;;;;;;;;5070404;28;20051;-77
2023/05/08 03:38:24;;;;;;;0.20;0.20;;;;;;;;;;5069267;28;20032;-76
2023/05/08 03:40:49;;;;;;;0.50;0.50;;;;;;;;;;5070534;28;20492;-76
2023/05/08 03:43:16;;;;;;;0.20;0.20;;;;;;;;;;5087082;28;20062;-79
2023/05/08 03:45:43;;;;;;;0.20;0.20;;;;;;;;;;5070456;28;20620;-77
2023/05/08 03:48:09;;;;;;;0.20;0.20;;;;;;;;;;5070289;28;20016;-80
2023/05/08 03:50:36;;;;;;;0.13;0.13;;;;;;;;;;5070476;28;20044;-75
2023/05/08 03:53:03;;;;;;;0.20;0.20;;;;;;;;;;5069662;28;20024;-76
2023/05/08 03:55:31;;;;;;;0.20;0.20;;;;;;;;;;5088478;28;20569;-76
2023/05/08 03:58:20;;;;;;;1.38;1.33;;;;;;;;;;5070011;28;20658;-77
2023/05/08 04:01:05;;;;;;;0.43;0.43;;;;;;;;;;5069185;28;20493;-77
2023/05/08 04:03:50;;;;;;;0.13;0.13;;;;;;;;;;5070296;28;20036;-80
2023/05/08 04:06:27;;;;;;;0.20;0.20;;;;;;;;;;5069458;28;20032;-79
2023/05/08 04:08:59;;;;;;;0.10;0.10;;;;;;;;;;5070597;28;20074;-80
2023/05/08 04:11:29;;;;;;;0.32;0.32;;;;;;;;;;5088364;28;20394;-81
2023/05/08 04:13:59;;;;;;;0.10;0.10;;;;;;;;;;5070072;28;20028;-75
2023/05/08 04:16:26;;;;;;;0.13;0.13;;;;;;;;;;5086917;28;20028;-77
2023/05/08 04:18:58;;;;;;;0.10;0.10;;;;;;;;;;5088036;28;20031;-78
2023/05/08 04:21:24;;;;;;;0.15;0.15;;;;;;;;;;5071273;28;20399;-80
2023/05/08 04:23:51;;;;;;;0.20;0.20;;;;;;;;;;5073200;28;20020;-82
2023/05/08 04:26:17;;;;;;;0.13;0.13;;;;;;;;;;5072437;28;20035;-82
2023/05/08 04:28:45;;;;;;;0.10;0.10;;;;;;;;;;5073654;28;20070;-81
2023/05/08 04:31:13;;;;;;;0.20;0.20;;;;;;;;;;5075202;28;20232;-83
2023/05/08 04:33:39;;;;;;;0.17;0.17;;;;;;;;;;5096687;28;20028;-84
2023/05/08 04:36:05;;;;;;;3.38;3.17;;;;;;;;;;5076928;28;20063;-85
2023/05/08 04:38:34;;;;;;;0.10;0.10;;;;;;;;;;5074666;28;20047;-85
2023/05/08 04:41:00;;;;;;;0.20;0.20;;;;;;;;;;5072907;28;20038;-84
2023/05/08 04:43:25;;;;;;;0.20;0.20;;;;;;;;;;5074327;28;20487;-84
2023/05/08 04:45:51;;;;;;;0.10;0.10;;;;;;;;;;5088107;28;20033;-79
2023/05/08 04:48:17;;;;;;;1.17;1.00;;;;;;;;;;5073810;28;20036;-85
2023/05/08 04:50:43;;;;;;;0.20;0.20;;;;;;;;;;5073665;28;20077;-84
2023/05/08 04:53:09;;;;;;;0.10;0.10;;;;;;;;;;5073162;28;20040;-76
2023/05/08 04:55:34;;;;;;;0.20;0.20;;;;;;;;;;5072139;28;20082;-76
2023/05/08 04:58:00;;;;;;;0.38;0.38;;;;;;;;;;5091187;28;20082;-75
2023/05/08 05:00:26;;;;;;;0.40;0.40;;;;;;;;;;5071373;28;20139;-79
2023/05/08 05:02:51;;;;;;;0.20;0.20;;;;;;;;;;5072757;28;20040;-80
2023/05/08 05:05:16;;;;;;;0.10;0.10;;;;;;;;;;5090067;28;20391;-80
2023/05/08 05:07:42;;;;;;;0.20;0.20;;;;;;;;;;5090464;28;20036;-75
2023/05/08 05:10:08;;;;;;;0.85;0.82;;;;;;;;;;5072363;28;20115;-75
2023/05/08 05:12:34;;;;;;;0.20;0.20;;;;;;;;;;5090274;28;20115;-79
2023/05/08 05:15:00;;;;;;;0.10;0.10;;;;;;;;;;5072916;28;20032;-79
2023/05/08 05:17:30;;;;;;;0.20;0.20;;;;;;;;;;5072816;28;20044;-79
2023/05/08 05:19:56;;;;;;;0.10;0.10;;;;;;;;;;5072562;28;20505;-79
2023/05/08 05:22:21;;;;;;;0.10;0.10;;;;;;;;;;5091092;28;20484;-81
2023/05/08 05:24:47;;;;;;;0.20;0.20;;;;;;;;;;5072572;28;20035;-78
2023/05/08 05:27:12;;;;;;;0.20;0.20;;;;;;;;;;5092587;28;20421;-77
2023/05/08 05:29:38;;;;;;;0.20;0.20;;;;;;;;;;5073170;28;20032;-79
2023/05/08 05:32:06;;;;;;;0.10;0.10;;;;;;;;;;5089082;28;20162;-79
2023/05/08 05:34:31;;;;;;;0.20;0.20;;;;;;;;;;5070620;28;20104;-79
2023/05/08 05:36:56;;;;;;;0.20;0.20;;;;;;;;;;5089596;28;20547;-80
2023/05/08 05:39:22;;;;;;;0.20;0.20;;;;;;;;;;5072649;28;20044;-75
2023/05/08 05:41:47;;;;;;;0.20;0.20;;;;;;;;;;5072757;28;20036;-76
2023/05/08 05:44:13;;;;;;;1.35;1.10;;;;;;;;;;5073146;28;20035;-80
2023/05/08 05:46:38;;;;;;;0.20;0.20;;;;;;;;;;5071765;28;20036;-78
2023/05/08 05:49:04;;;;;;;0.30;0.30;;;;;;;;;;5056876;28;20028;-78
2023/05/08 05:51:31;;;;;;;0.20;0.20;;;;;;;;;;5063659;28;20059;-78
2023/05/08 05:53:57;;;;;;;0.20;0.20;;;;;;;;;;5052238;28;20483;-75
2023/05/08 05:56:24;;;;;;;0.20;0.20;;;;;;;;;;5063111;28;20036;-75
2023/05/08 05:58:49;;;;;;;0.30;0.30;;;;;;;;;;5052076;28;20028;-75
2023/05/08 06:01:15;;;;;;;0.20;0.20;;;;;;;;;;5069251;28;20040;-75
2023/05/08 06:03:40;;;;;;;0.20;0.20;;;;;;;;;;5051915;28;20471;-75
2023/05/08 06:06:06;;;;;;;0.20;0.20;;;;;;;;;;5076780;28;20028;-75
2023/05/08 06:08:31;;;;;;;0.17;0.17;;;;;;;;;;5086815;28;20499;-79
2023/05/08 06:10:58;;;;;;;0.20;0.20;;;;;;;;;;5087796;28;20038;-79
2023/05/08 06:13:24;;;;;;;0.20;0.20;;;;;;;;;;5071107;28;20028;-76
2023/05/08 06:15:50;;;;;;;4.47;4.15;;;;;;;;;;5064770;28;20056;-79
2023/05/08 06:18:17;;;;;;;0.22;0.22;;;;;;;;;;5070039;28;20040;-81
2023/05/08 06:20:42;;;;;;;0.20;0.20;;;;;;;;;;5050777;28;20465;-78
2023/05/08 06:23:08;;;;;;;0.70;0.70;;;;;;;;;;5070722;28;20437;-72
2023/05/08 06:25:33;;;;;;;0.13;0.13;;;;;;;;;;5089315;28;20079;-69
2023/05/08 06:27:59;;;;;;;1.30;1.20;;;;;;;;;;5082490;28;20540;-70
2023/05/08 06:30:24;;;;;;;0.30;0.30;;;;;;;;;;5081771;28;20067;-70
2023/05/08 06:32:50;;;;;;;0.20;0.20;;;;;;;;;;5086388;28;20479;-71
2023/05/08 06:35:17;;;;;;;0.40;0.40;;;;;;;;;;5041331;28;20036;-71
2023/05/08 06:37:43;;;;;;;0.20;0.20;;;;;;;;;;5069562;28;20044;-69
2023/05/08 06:40:09;;;;;;;0.20;0.20;;;;;;;;;;5078382;28;20032;-69
2023/05/08 06:42:34;;;;;;;1.30;1.15;;;;;;;;;;5085393;28;20157;-74
2023/05/08 06:45:00;;;;;;;0.10;0.10;;;;;;;;;;5078060;28;20127;-69
2023/05/08 06:47:25;;;;;;;0.20;0.20;;;;;;;;;;5075520;28;20044;-70
2023/05/08 06:49:52;;;;;;;0.20;0.20;;;;;;;;;;5088890;28;20043;-69
2023/05/08 06:52:19;;;;;;;0.20;0.20;;;;;;;;;;5089300;28;20058;-69
2023/05/08 06:54:45;;;;;;;0.20;0.20;;;;;;;;;;5087257;28;20016;-69
2023/05/08 06:57:12;;;;;;;0.28;0.28;;;;;;;;;;5050995;28;20033;-69
2023/05/08 06:59:38;;;;;;;0.20;0.20;;;;;;;;;;5043229;28;20489;-71
2023/05/08 07:02:03;;;;;;;2.50;2.30;;;;;;;;;;5082006;28;20029;-69
2023/05/08 07:04:29;;;;;;;0.20;0.20;;;;;;;;;;5075137;28;20422;-69
2023/05/08 07:06:54;;;;;;;0.20;0.20;;;;;;;;;;5071797;28;20112;-68
2023/05/08 07:09:20;;;;;;;0.47;0.47;;;;;;;;;;5079303;28;20036;-70
2023/05/08 07:11:46;;;;;;;0.43;0.43;;;;;;;;;;5071579;28;20474;-69
2023/05/08 07:14:12;;;;;;;3.00;2.75;;;;;;;;;;5085943;28;20127;-70
2023/05/08 07:16:37;;;;;;;0.20;0.20;;;;;;;;;;5070325;28;20119;-70
2023/05/08 07:19:03;;;;;;;0.30;0.30;;;;;;;;;;5088619;28;20479;-69
2023/05/08 07:21:29;;;;;;;0.20;0.20;;;;;;;;;;5080030;28;20024;-70
2023/05/08 07:23:55;;;;;;;0.20;0.20;;;;;;;;;;5088256;28;20060;-70
2023/05/08 07:26:21;;;;;;;0.20;0.20;;;;;;;;;;5088410;28;20392;-71
2023/05/08 07:28:46;;;;;;;0.43;0.43;;;;;;;;;;5080287;28;20035;-69
2023/05/08 07:31:12;;;;;;;0.20;0.20;;;;;;;;;;5080441;28;20054;-69
2023/05/08 07:33:37;;;;;;;0.20;0.20;;;;;;;;;;5079546;28;20487;-70
2023/05/08 07:36:03;;;;;;;0.20;0.20;;;;;;;;;;5074320;28;20451;-69
2023/05/08 07:38:28;;;;;;;0.40;0.40;;;;;;;;;;5083460;28;20534;-70
2023/05/08 07:40:56;;;;;;;0.68;0.68;;;;;;;;;;5086300;28;20059;-70
2023/05/08 07:43:22;;;;;;;0.20;0.20;;;;;;;;;;5088792;28;20548;-70
2023/05/08 07:45:47;;;;;;;0.17;0.17;;;;;;;;;;5085129;28;20024;-70
2023/05/08 07:48:12;;;;;;;1.00;0.95;;;;;;;;;;5087763;28;20035;-69
2023/05/08 07:50:38;;;;;;;0.20;0.20;;;;;;;;;;5087057;28;20050;-69
2023/05/08 07:53:03;;;;;;;0.20;0.20;;;;;;;;;;5074743;28;20036;-74
2023/05/08 07:55:29;;;;;;;0.50;0.50;;;;;;;;;;5065458;28;20039;-70
2023/05/08 07:57:54;;;;;;;0.20;0.20;;;;;;;;;;5089348;28;20032;-71
2023/05/08 08:00:20;;;;;;;0.20;0.20;;;;;;;;;;5072356;28;20051;-73
2023/05/08 08:02:45;;;;;;;0.20;0.20;;;;;;;;;;5085275;28;20070;-70
2023/05/08 08:05:10;;;;;;;0.40;0.40;;;;;;;;;;5082802;28;20030;-70
2023/05/08 08:07:36;;;;;;;0.20;0.20;;;;;;;;;;5084004;28;20028;-72
2023/05/08 08:10:03;;;;;;;0.20;0.20;;;;;;;;;;5074396;28;20376;-70
2023/05/08 08:12:29;;;;;;;0.35;0.35;;;;;;;;;;5074526;28;20036;-71
2023/05/08 08:14:55;;;;;;;0.30;0.30;;;;;;;;;;5078168;28;20076;-71
2023/05/08 08:17:21;;;;;;;0.20;0.20;;;;;;;;;;5084559;28;20044;-70
2023/05/08 08:19:46;;;;;;;0.20;0.20;;;;;;;;;;5083544;28;20036;-70
2023/05/08 08:22:11;;;;;;;0.10;0.10;;;;;;;;;;5080735;28;20450;-70
2023/05/08 08:24:37;;;;;;;0.22;0.22;;;;;;;;;;5079876;28;20028;-68
2023/05/08 08:27:03;;;;;;;2.53;1.70;;;;;;;;;;5064878;28;20383;-69
2023/05/08 08:29:29;;;;;;;0.65;0.65;;;;;;;;;;5071212;28;20051;-69
2023/05/08 08:31:55;;;;;;;0.90;0.65;;;;;;;;;;5082137;28;20439;-69
2023/05/08 08:34:20;;;;;;;0.65;0.60;;;;;;;;;;5087987;28;20472;-69
2023/05/08 08:36:46;;;;;;;0.25;0.25;;;;;;;;;;5074566;28;20120;-69
2023/05/08 08:39:11;;;;;;;2.67;1.77;;;;;;;;;;5085006;28;20035;-70
2023/05/08 08:41:40;;;;;;;0.85;0.40;;;;;;;;;;5082159;28;20036;-70
2023/05/08 08:44:05;;;;;;;0.43;0.43;;;;;;;;;;5066571;28;20039;-74
2023/05/08 08:46:34;;;;;;;1.45;1.05;;;;;;;;;;5085942;28;20035;-70
2023/05/08 08:49:02;;;;;;;1.38;0.88;;;;;;;;;;5067433;28;20032;-71
2023/05/08 08:51:31;;;;;;;0.63;0.63;;;;;;;;;;5080414;28;20039;-69
2023/05/08 08:54:08;;;;;;;1.25;0.70;;;;;;;;;;5084053;28;20031;-71
2023/05/08 08:56:35;;;;;;;0.50;0.35;;;;;;;;;;5074742;28;20040;-71
2023/05/08 08:59:00;;;;;;;0.38;0.38;;;;;;;;;;5092437;28;20071;-72
2023/05/08 09:01:28;;;;;;;0.93;0.80;;;;;;;;;;5086993;28;20063;-72
2023/05/08 09:03:55;;;;;;;0.68;0.55;;;;;;;;;;5051173;28;20476;-69
2023/05/08 09:06:21;;;;;;;3.25;0.88;;;;;;;;;;5083194;28;20448;-69
2023/05/08 09:08:46;;;;;;;0.22;0.22;;;;;;;;;;5073194;28;20115;-69
2023/05/08 09:11:12;;;;;;;0.40;0.40;;;;;;;;;;5079349;28;20074;-70
2023/05/08 09:13:37;;;;;;;1.80;1.30;;;;;;;;;;5083883;28;20109;-70
2023/05/08 09:16:03;;;;;;;0.40;0.40;;;;;;;;;;5043804;28;20032;-74
2023/05/08 09:18:28;;;;;;;0.52;0.52;;;;;;;;;;5065301;28;20115;-76
2023/05/08 09:20:53;;;;;;;1.25;0.65;;;;;;;;;;5085079;28;20467;-75
2023/05/08 09:23:19;;;;;;;0.57;0.50;;;;;;;;;;5077895;28;20028;-76
2023/05/08 09:25:49;;;;;;;0.13;0.13;;;;;;;;;;5076869;28;20039;-75
2023/05/08 09:28:18;;;;;;;0.52;0.52;;;;;;;;;;5079661;28;20028;-76
2023/05/08 09:30:56;;;;;;;0.20;0.20;;;;;;;;;;5081323;28;20048;-75
2023/05/08 09:33:24;;;;;;;0.35;0.32;;;;;;;;;;5090180;28;20067;-75
2023/05/08 09:35:50;;;;;;;0.45;0.45;;;;;;;;;;5076620;28;20476;-76
2023/05/08 09:38:38;;;;;;;0.20;0.20;;;;;;;;;;5065194;28;20054;-74
2023/05/08 09:41:11;;;;;;;0.20;0.20;;;;;;;;;;5062541;28;20063;-76
2023/05/08 09:43:36;;;;;;;0.28;0.28;;;;;;;;;;5080140;28;20487;-74
2023/05/08 09:46:21;;;;;;;1.23;0.85;;;;;;;;;;5060516;28;20039;-75
2023/05/08 09:48:47;;;;;;;0.10;0.10;;;;;;;;;;5089783;28;20439;-75
2023/05/08 09:51:12;;;;;;;1.85;0.50;;;;;;;;;;5089838;28;20068;-75
2023/05/08 09:53:38;;;;;;;0.20;0.20;;;;;;;;;;5090098;28;20482;-75
2023/05/08 09:56:03;;;;;;;0.30;0.30;;;;;;;;;;5082203;28;20173;-78
2023/05/08 09:58:39;;;;;;;0.20;0.20;;;;;;;;;;5071835;28;20467;-76
2023/05/08 10:01:05;;;;;;;0.10;0.10;;;;;;;;;;5090057;28;20035;-74
2023/05/08 10:03:47;;;;;;;0.10;0.10;;;;;;;;;;5089949;28;20392;-74
2023/05/08 10:06:13;;;;;;;0.13;0.13;;;;;;;;;;5089781;28;20043;-77
2023/05/08 10:08:39;;;;;;;0.13;0.13;;;;;;;;;;5089995;28;20487;-75
2023/05/08 10:11:17;;;;;;;0.10;0.10;;;;;;;;;;5080333;28;20028;-76
2023/05/08 10:13:43;;;;;;;0.22;0.22;;;;;;;;;;5088268;28;20093;-76
2023/05/08 10:16:15;;;;;;;0.90;0.50;;;;;;;;;;5089413;28;20032;-75
2023/05/08 10:18:48;;;;;;;0.20;0.20;;;;;;;;;;5089015;28;20468;-75
2023/05/08 10:21:14;;;;;;;0.20;0.20;;;;;;;;;;5089997;28;20118;-76
2023/05/08 10:23:45;;;;;;;0.30;0.30;;;;;;;;;;5071321;28;20046;-75
2023/05/08 10:26:15;;;;;;;2.58;2.38;;;;;;;;;;5089468;28;20055;-75
2023/05/08 10:28:55;;;;;;;1.02;0.73;;;;;;;;;;5071532;28;20067;-76
2023/05/08 10:31:21;;;;;;;3.30;1.25;;;;;;;;;;5089089;28;20040;-77
2023/05/08 10:33:49;;;;;;;2.75;1.33;;;;;;;;;;5081145;28;20036;-74
2023/05/08 10:36:15;;;;;;;2.28;0.80;;;;;;;;;;5068878;28;20036;-75
2023/05/08 10:38:40;;;;;;;0.10;0.10;;;;;;;;;;5074665;28;20103;-75
2023/05/08 10:41:06;;;;;;;0.85;0.75;;;;;;;;;;5076325;28;20028;-75
2023/05/08 10:43:32;;;;;;;0.52;0.43;;;;;;;;;;5078628;28;20043;-76
2023/05/08 10:46:00;;;;;;;1.10;0.80;;;;;;;;;;5068764;28;20033;-75
2023/05/08 10:48:38;;;;;;;0.20;0.20;;;;;;;;;;5080140;28;20043;-74
2023/05/08 10:51:23;;;;;;;0.10;0.10;;;;;;;;;;5072512;28;20475;-73
2023/05/08 10:54:04;;;;;;;0.10;0.10;;;;;;;;;;5061179;28;20492;-74
2023/05/08 10:56:29;;;;;;;0.10;0.10;;;;;;;;;;5069450;28;20093;-74
2023/05/08 10:58:58;;;;;;;0.10;0.10;;;;;;;;;;5068996;28;20036;-76
2023/05/08 11:01:24;;;;;;;2.00;1.90;;;;;;;;;;5069138;28;20033;-75
2023/05/08 11:03:49;;;;;;;0.10;0.10;;;;;;;;;;5065044;28;20430;-75
2023/05/08 11:06:15;;;;;;;0.20;0.20;;;;;;;;;;5088214;28;20035;-75
2023/05/08 11:08:53;;;;;;;0.10;0.10;;;;;;;;;;5074615;28;20063;-75
2023/05/08 11:11:34;;;;;;;0.20;0.20;;;;;;;;;;5065385;28;20059;-72
2023/05/08 11:14:05;;;;;;;0.20;0.20;;;;;;;;;;5081654;28;20039;-70
2023/05/08 11:16:49;;;;;;;0.30;0.30;;;;;;;;;;5076371;28;20039;-74
2023/05/08 11:19:15;;;;;;;0.20;0.20;;;;;;;;;;5068472;28;20028;-75
2023/05/08 11:22:00;;;;;;;0.10;0.10;;;;;;;;;;5067501;28;20541;-75
2023/05/08 11:24:36;;;;;;;0.20;0.20;;;;;;;;;;5081876;28;20081;-73
2023/05/08 11:27:01;;;;;;;0.20;0.20;;;;;;;;;;5085441;28;20028;-73
2023/05/08 11:29:26;;;;;;;0.20;0.20;;;;;;;;;;5088265;28;20360;-73
2023/05/08 11:31:52;;;;;;;0.10;0.10;;;;;;;;;;5069708;28;20566;-73
2023/05/08 11:34:36;;;;;;;0.20;0.20;;;;;;;;;;5088385;28;20039;-73
2023/05/08 11:37:01;;;;;;;0.85;0.73;;;;;;;;;;5088299;28;20149;-73
2023/05/08 11:39:27;;;;;;;1.75;0.40;;;;;;;;;;5088203;28;20558;-73
2023/05/08 11:41:52;;;;;;;0.50;0.50;;;;;;;;;;5087935;28;20375;-73
2023/05/08 11:44:19;;;;;;;0.20;0.20;;;;;;;;;;5088289;28;20275;-73
2023/05/08 11:46:47;;;;;;;0.20;0.20;;;;;;;;;;5088001;28;20479;-73
2023/05/08 11:49:15;;;;;;;0.20;0.20;;;;;;;;;;5088376;28;20032;-73
2023/05/08 11:51:43;;;;;;;0.10;0.10;;;;;;;;;;5088182;28;20024;-73
2023/05/08 11:54:10;;;;;;;0.17;0.17;;;;;;;;;;5088188;28;20097;-73
2023/05/08 11:56:37;;;;;;;0.20;0.20;;;;;;;;;;5088077;28;20093;-72
2023/05/08 11:59:03;;;;;;;0.20;0.20;;;;;;;;;;5088087;28;20047;-73
2023/05/08 12:01:30;;;;;;;0.20;0.20;;;;;;;;;;5087918;28;20090;-72
2023/05/08 12:04:05;;;;;;;0.20;0.20;;;;;;;;;;5088188;28;20068;-73
2023/05/08 12:06:31;;;;;;;0.20;0.20;;;;;;;;;;5088432;28;20032;-73
2023/05/08 12:08:57;;;;;;;0.20;0.20;;;;;;;;;;5088042;28;20047;-72
2023/05/08 12:11:23;;;;;;;0.20;0.20;;;;;;;;;;5087745;28;20040;-73
2023/05/08 12:13:52;;;;;;;0.20;0.20;;;;;;;;;;5082225;28;20028;-73
2023/05/08 12:16:18;;;;;;;0.30;0.30;;;;;;;;;;5087354;28;20031;-73
2023/05/08 12:18:43;;;;;;;0.20;0.20;;;;;;;;;;5088077;28;20404;-73
2023/05/08 12:21:10;;;;;;;0.20;0.20;;;;;;;;;;5087803;28;20035;-72
2023/05/08 12:23:36;;;;;;;0.20;0.20;;;;;;;;;;5084820;28;20024;-73
2023/05/08 12:26:02;;;;;;;0.10;0.10;;;;;;;;;;5069294;28;20090;-74
2023/05/08 12:28:27;;;;;;;1.00;1.00;;;;;;;;;;5077849;28;20095;-73
2023/05/08 12:30:53;;;;;;;0.20;0.20;;;;;;;;;;5087295;28;20048;-73
2023/05/08 12:33:19;;;;;;;0.20;0.20;;;;;;;;;;5087809;28;20483;-74
2023/05/08 12:35:44;;;;;;;0.20;0.20;;;;;;;;;;5088104;28;20468;-73
2023/05/08 12:38:10;;;;;;;0.20;0.20;;;;;;;;;;5087539;28;20042;-74
2023/05/08 12:40:41;;;;;;;0.20;0.20;;;;;;;;;;5087654;28;20019;-74
2023/05/08 12:43:07;;;;;;;0.20;0.20;;;;;;;;;;5089994;28;20024;-74
2023/05/08 12:45:33;;;;;;;0.20;0.20;;;;;;;;;;5091099;28;20475;-74
2023/05/08 12:47:59;;;;;;;0.20;0.20;;;;;;;;;;5090748;28;20498;-74
2023/05/08 12:50:25;;;;;;;0.22;0.22;;;;;;;;;;5072843;28;20028;-73
2023/05/08 12:52:51;;;;;;;0.22;0.22;;;;;;;;;;5090997;28;20059;-73
2023/05/08 12:55:24;;;;;;;0.20;0.20;;;;;;;;;;5089555;28;20055;-73
2023/05/08 12:57:57;;;;;;;0.20;0.20;;;;;;;;;;5092659;28;20070;-73
2023/05/08 13:00:22;;;;;;;0.22;0.22;;;;;;;;;;5092050;28;20375;-73
2023/05/08 13:02:54;;;;;;;0.20;0.20;;;;;;;;;;5091581;28;20031;-73
2023/05/08 13:05:21;;;;;;;0.20;0.20;;;;;;;;;;5090226;28;20036;-73
2023/05/08 13:07:46;;;;;;;0.20;0.20;;;;;;;;;;5087608;28;20123;-74
2023/05/08 13:10:12;;;;;;;0.20;0.20;;;;;;;;;;5075718;28;20144;-73
2023/05/08 13:12:37;;;;;;;0.20;0.20;;;;;;;;;;5085955;28;20035;-73
2023/05/08 13:15:03;;;;;;;0.28;0.28;;;;;;;;;;5083899;28;20028;-74
2023/05/08 13:17:29;;;;;;;0.13;0.13;;;;;;;;;;5083555;28;20430;-72
2023/05/08 13:19:55;;;;;;;0.20;0.20;;;;;;;;;;5075062;28;20042;-73
2023/05/08 13:22:25;;;;;;;0.20;0.20;;;;;;;;;;5088521;28;20464;-73
2023/05/08 13:24:50;;;;;;;0.20;0.20;;;;;;;;;;5087848;28;20546;-73
2023/05/08 13:27:16;;;;;;;0.20;0.20;;;;;;;;;;5053122;28;20123;-72
2023/05/08 13:29:41;;;;;;;0.30;0.30;;;;;;;;;;5077130;28;20513;-73
2023/05/08 13:32:07;;;;;;;0.20;0.20;;;;;;;;;;5089354;28;20040;-73
2023/05/08 13:34:32;;;;;;;0.52;0.52;;;;;;;;;;5089228;28;20039;-73
2023/05/08 13:36:58;;;;;;;0.20;0.20;;;;;;;;;;5082258;28;20035;-74
2023/05/08 13:39:23;;;;;;;0.20;0.20;;;;;;;;;;5074712;28;20421;-73
2023/05/08 13:41:49;;;;;;;0.20;0.20;;;;;;;;;;5079272;28;20856;-73
2023/05/08 13:44:14;;;;;;;0.20;0.20;;;;;;;;;;5083935;28;20371;-73
2023/05/08 13:46:40;;;;;;;0.20;0.20;;;;;;;;;;5089522;28;20043;-73
2023/05/08 13:49:05;;;;;;;0.20;0.20;;;;;;;;;;5089239;28;20348;-73
2023/05/08 13:51:30;;;;;;;0.20;0.20;;;;;;;;;;5082986;28;20052;-73
2023/05/08 13:53:56;;;;;;;0.15;0.15;;;;;;;;;;5087277;28;20036;-74
2023/05/08 13:56:21;;;;;;;0.20;0.20;;;;;;;;;;5089887;28;20035;-73
2023/05/08 13:58:47;;;;;;;0.10;0.10;;;;;;;;;;5089977;28;20103;-73
2023/05/08 14:01:12;;;;;;;0.20;0.20;;;;;;;;;;5090030;28;20042;-73
2023/05/08 14:03:37;;;;;;;0.20;0.20;;;;;;;;;;5089757;28;20379;-74
2023/05/08 14:06:04;;;;;;;0.20;0.20;;;;;;;;;;5089741;28;20048;-73
2023/05/08 14:08:29;;;;;;;0.30;0.30;;;;;;;;;;5089433;28;20506;-75
2023/05/08 14:10:55;;;;;;;0.20;0.20;;;;;;;;;;5090124;28;20036;-76
2023/05/08 14:13:20;;;;;;;0.20;0.20;;;;;;;;;;5088129;28;20472;-75
2023/05/08 14:15:46;;;;;;;0.20;0.20;;;;;;;;;;5090101;28;20035;-75
2023/05/08 14:18:11;;;;;;;0.28;0.28;;;;;;;;;;5080039;28;20024;-74
2023/05/08 14:20:36;;;;;;;0.22;0.22;;;;;;;;;;5089791;28;20527;-75
2023/05/08 14:23:02;;;;;;;0.10;0.10;;;;;;;;;;5070349;28;20075;-75
2023/05/08 14:25:27;;;;;;;0.30;0.30;;;;;;;;;;5089829;28;20477;-76
2023/05/08 14:27:53;;;;;;;0.20;0.20;;;;;;;;;;5090015;28;20038;-76
2023/05/08 14:30:18;;;;;;;0.20;0.20;;;;;;;;;;5089638;28;20040;-75
2023/05/08 14:32:43;;;;;;;0.63;0.63;;;;;;;;;;5090091;28;20035;-76
2023/05/08 14:35:09;;;;;;;0.65;0.65;;;;;;;;;;5090121;28;20528;-75
2023/05/08 14:37:34;;;;;;;0.47;0.43;;;;;;;;;;5089183;28;20028;-75
2023/05/08 14:40:00;;;;;;;0.30;0.30;;;;;;;;;;5089619;28;20403;-75
2023/05/08 14:42:25;;;;;;;0.20;0.20;;;;;;;;;;5089569;28;20111;-75
2023/05/08 14:44:50;;;;;;;0.15;0.15;;;;;;;;;;5071712;28;20044;-75